Bao An Cheng 69 — BVBD5 — position and weather

sailwx.info

Track history (hours):
 
Tides and Currents Weather Stations Pressure Air Temp Water Temp Dewpoint Dewpoint Depression Visibility Wind Speed Wind Dir Waves Ship Positions

Bao An Cheng 69

Last reported at 2016-Sep-30 14:24 UTC. Time now 2016-Sep-30 15:17 UTC.
Position N 23°58' E 118°03'.

Length 121 m; draft 6 m.

Type: Cargo ship. MMSI: 412703090.

Date/timePositionNaut miles runAvg speedWind from/ knotsBaromVisibWave heightAir tempDewpointWater temp
2016-Sep-30 14:24N 23°58' E 118°03'8010.2
2016-Sep-30 06:33N 23°17' E 116°48'6 0.8
2016-Sep-29 23:28N 23°21' E 116°44'0 0.0
2016-Sep-29 21:28N 23°21' E 116°44'0 0.0
2016-Sep-29 20:28N 23°21' E 116°44'0 0.0
2016-Sep-29 19:28N 23°21' E 116°44'0 0.0
2016-Sep-29 16:22N 23°21' E 116°44'0 0.0
2016-Sep-29 15:28N 23°21' E 116°44'0 0.0
2016-Sep-29 14:28N 23°21' E 116°44'1 0.7
2016-Sep-29 13:33N 23°21' E 116°44'43 8.6
2016-Sep-29 08:30N 23°34' E 117°29'1010.2
2016-Sep-29 07:33N 23°40' E 117°37'90 9.0
2016-Sep-28 21:33N 24°43' E 118°47'7 3.3
2016-Sep-28 19:33N 24°49' E 118°43'0 0.0
2016-Sep-28 16:23N 24°49' E 118°43'0 0.0
2016-Sep-28 15:17N 24°49' E 118°43'0 0.0
2016-Sep-28 12:29N 24°49' E 118°43'0 0.1
2016-Sep-28 08:08N 24°49' E 118°44'1 0.1
2016-Sep-28 03:31N 24°49' E 118°44'0 0.0
2016-Sep-28 02:31N 24°49' E 118°44'0 0.0
2016-Sep-28 01:25N 24°49' E 118°44'0 0.0
2016-Sep-27 23:31N 24°49' E 118°44'0 0.0
2016-Sep-27 19:31N 24°49' E 118°45'0 0.0
2016-Sep-27 14:31N 24°49' E 118°45'0 0.0
2016-Sep-27 13:31N 24°49' E 118°45'0 0.0
2016-Sep-27 10:31N 24°49' E 118°44'0 0.0
2016-Sep-27 00:19N 24°49' E 118°44'0 0.0
2016-Sep-26 20:31N 24°49' E 118°44'0 0.1
2016-Sep-26 19:25N 24°49' E 118°45'0 0.0
2016-Sep-26 15:25N 24°49' E 118°45'0 0.0
2016-Sep-26 13:31N 24°49' E 118°44'0 0.1
2016-Sep-26 11:31N 24°49' E 118°44'0 0.0
2016-Sep-26 08:33N 24°49' E 118°44'1 0.2
2016-Sep-26 02:30N 24°49' E 118°43'0 0.0
2016-Sep-26 01:28N 24°49' E 118°43'0 0.1
2016-Sep-26 00:33N 24°49' E 118°43'90 7.4
2016-Sep-25 12:22N 26°07' E 119°33'7 8.9
2016-Sep-25 11:33N 26°01' E 119°29'0 0.1
2016-Sep-25 04:28N 26°01' E 119°29'0 0.0
2016-Sep-25 00:04N 26°01' E 119°29'0 0.0
2016-Sep-24 19:10N 26°01' E 119°29'0 0.0
2016-Sep-24 18:26N 26°01' E 119°29'67 3.9
2016-Sep-24 01:19N 24°56' E 119°11'7 8.7
2016-Sep-24 00:33N 24°53' E 119°05'20 3.7
2016-Sep-23 19:12N 24°49' E 118°44'0 0.0
2016-Sep-23 17:30N 24°49' E 118°44'0 0.0
2016-Sep-23 16:24N 24°49' E 118°44'0 0.0
2016-Sep-23 15:24N 24°49' E 118°44'0 0.0
2016-Sep-23 13:30N 24°49' E 118°44'26 2.9
2016-Sep-23 04:33N 24°25' E 118°34'10 9.4
2016-Sep-23 03:27N 24°17' E 118°26'8 9.3
2016-Sep-23 02:33N 24°11' E 118°20'11 8.9
2016-Sep-23 01:20N 24°04' E 118°11'8 8.6
2016-Sep-23 00:24N 23°59' E 118°04'83 6.9
2016-Sep-22 12:22N 23°21' E 116°43'0 0.0
2016-Sep-22 04:10N 23°21' E 116°43'0 0.0
2016-Sep-22 03:28N 23°21' E 116°43'0 0.0
2016-Sep-22 00:28N 23°21' E 116°43'0 0.0
2016-Sep-21 23:28N 23°21' E 116°43'3 3.5
2016-Sep-21 22:33N 23°19' E 116°46'53 8.9
2016-Sep-21 16:33N 23°41' E 117°39'79 9.9
2016-Sep-21 08:32N 24°34' E 118°43'15 2.9
2016-Sep-21 03:23N 24°49' E 118°43'0 0.0
2016-Sep-21 02:23N 24°49' E 118°43'2 0.2
2016-Sep-20 14:32N 24°49' E 118°45'  
Track history (hours):
 
Tides and Currents Weather Stations Pressure Air Temp Water Temp Dewpoint Dewpoint Depression Visibility Wind Speed Wind Dir Waves Ship Positions

Bao An Cheng 69

Last reported at 2016-Sep-30 14:24 UTC. Time now 2016-Sep-30 15:17 UTC.
Position N 23°58' E 118°03'.

Length 121 m; draft 6 m.

Type: Cargo ship. MMSI: 412703090.

Date/timePositionNaut miles runAvg speedWind from/ knotsBaromVisibWave heightAir tempDewpointWater temp
2016-Sep-30 14:24N 23°58' E 118°03'8010.2
2016-Sep-30 06:33N 23°17' E 116°48'6 0.8
2016-Sep-29 23:28N 23°21' E 116°44'0 0.0
2016-Sep-29 21:28N 23°21' E 116°44'0 0.0
2016-Sep-29 20:28N 23°21' E 116°44'0 0.0
2016-Sep-29 19:28N 23°21' E 116°44'0 0.0
2016-Sep-29 16:22N 23°21' E 116°44'0 0.0
2016-Sep-29 15:28N 23°21' E 116°44'0 0.0
2016-Sep-29 14:28N 23°21' E 116°44'1 0.7
2016-Sep-29 13:33N 23°21' E 116°44'43 8.6
2016-Sep-29 08:30N 23°34' E 117°29'1010.2
2016-Sep-29 07:33N 23°40' E 117°37'90 9.0
2016-Sep-28 21:33N 24°43' E 118°47'7 3.3
2016-Sep-28 19:33N 24°49' E 118°43'0 0.0
2016-Sep-28 16:23N 24°49' E 118°43'0 0.0
2016-Sep-28 15:17N 24°49' E 118°43'0 0.0
2016-Sep-28 12:29N 24°49' E 118°43'0 0.1
2016-Sep-28 08:08N 24°49' E 118°44'1 0.1
2016-Sep-28 03:31N 24°49' E 118°44'0 0.0
2016-Sep-28 02:31N 24°49' E 118°44'0 0.0
2016-Sep-28 01:25N 24°49' E 118°44'0 0.0
2016-Sep-27 23:31N 24°49' E 118°44'0 0.0
2016-Sep-27 19:31N 24°49' E 118°45'0 0.0
2016-Sep-27 14:31N 24°49' E 118°45'0 0.0
2016-Sep-27 13:31N 24°49' E 118°45'0 0.0
2016-Sep-27 10:31N 24°49' E 118°44'0 0.0
2016-Sep-27 00:19N 24°49' E 118°44'0 0.0
2016-Sep-26 20:31N 24°49' E 118°44'0 0.1
2016-Sep-26 19:25N 24°49' E 118°45'0 0.0
2016-Sep-26 15:25N 24°49' E 118°45'0 0.0
2016-Sep-26 13:31N 24°49' E 118°44'0 0.1
2016-Sep-26 11:31N 24°49' E 118°44'0 0.0
2016-Sep-26 08:33N 24°49' E 118°44'1 0.2
2016-Sep-26 02:30N 24°49' E 118°43'0 0.0
2016-Sep-26 01:28N 24°49' E 118°43'0 0.1
2016-Sep-26 00:33N 24°49' E 118°43'90 7.4
2016-Sep-25 12:22N 26°07' E 119°33'7 8.9
2016-Sep-25 11:33N 26°01' E 119°29'0 0.1
2016-Sep-25 04:28N 26°01' E 119°29'0 0.0
2016-Sep-25 00:04N 26°01' E 119°29'0 0.0
2016-Sep-24 19:10N 26°01' E 119°29'0 0.0
2016-Sep-24 18:26N 26°01' E 119°29'67 3.9
2016-Sep-24 01:19N 24°56' E 119°11'7 8.7
2016-Sep-24 00:33N 24°53' E 119°05'20 3.7
2016-Sep-23 19:12N 24°49' E 118°44'0 0.0
2016-Sep-23 17:30N 24°49' E 118°44'0 0.0
2016-Sep-23 16:24N 24°49' E 118°44'0 0.0
2016-Sep-23 15:24N 24°49' E 118°44'0 0.0
2016-Sep-23 13:30N 24°49' E 118°44'26 2.9
2016-Sep-23 04:33N 24°25' E 118°34'10 9.4
2016-Sep-23 03:27N 24°17' E 118°26'8 9.3
2016-Sep-23 02:33N 24°11' E 118°20'11 8.9
2016-Sep-23 01:20N 24°04' E 118°11'8 8.6
2016-Sep-23 00:24N 23°59' E 118°04'83 6.9
2016-Sep-22 12:22N 23°21' E 116°43'0 0.0
2016-Sep-22 04:10N 23°21' E 116°43'0 0.0
2016-Sep-22 03:28N 23°21' E 116°43'0 0.0
2016-Sep-22 00:28N 23°21' E 116°43'0 0.0
2016-Sep-21 23:28N 23°21' E 116°43'3 3.5
2016-Sep-21 22:33N 23°19' E 116°46'53 8.9
2016-Sep-21 16:33N 23°41' E 117°39'79 9.9
2016-Sep-21 08:32N 24°34' E 118°43'15 2.9
2016-Sep-21 03:23N 24°49' E 118°43'0 0.0
2016-Sep-21 02:23N 24°49' E 118°43'2 0.2
2016-Sep-20 14:32N 24°49' E 118°45'  

Dump ship's entire track history